createdAt,value
2019-04-22T00:02:03.843Z,34.10
2019-04-22T00:04:40.247Z,33.60
2019-04-22T00:07:22.361Z,33.23
2019-04-22T00:09:58.422Z,33.14
2019-04-22T00:12:27.197Z,32.80
2019-04-22T00:14:54.321Z,32.56
2019-04-22T00:17:30.164Z,32.05
2019-04-22T00:20:03.099Z,31.72
2019-04-22T00:22:29.223Z,32.37
2019-04-22T00:25:03.501Z,32.72
2019-04-22T00:27:35.713Z,32.42
2019-04-22T00:32:24.301Z,31.92
2019-04-22T00:35:02.338Z,32.75
2019-04-22T00:37:28.615Z,32.41
2019-04-22T00:39:57.595Z,32.22
2019-04-22T00:42:36.303Z,32.05
2019-04-22T00:45:06.323Z,32.36
2019-04-22T00:47:32.411Z,32.27
2019-04-22T00:50:14.470Z,32.92
2019-04-22T00:52:35.354Z,33.33
2019-04-22T00:55:05.799Z,33.90
2019-04-22T00:57:33.255Z,34.26
2019-04-22T01:00:05.459Z,33.99
2019-04-22T01:02:44.527Z,34.08
2019-04-22T01:05:07.910Z,34.13
2019-04-22T01:07:36.454Z,34.07
2019-04-22T01:10:09.931Z,33.78
2019-04-22T01:12:39.623Z,33.87
2019-04-22T01:15:10.965Z,33.75
2019-04-22T01:17:43.521Z,34.39
2019-04-22T01:20:25.787Z,34.19
2019-04-22T01:22:31.771Z,33.96
2019-04-22T01:25:08.774Z,34.27
2019-04-22T01:27:34.944Z,34.54
2019-04-22T01:30:00.977Z,35.15
2019-04-22T01:32:26.225Z,35.79
2019-04-22T01:35:03.368Z,36.11
2019-04-22T01:37:35.952Z,36.52
2019-04-22T01:40:21.728Z,36.76
2019-04-22T01:42:54.033Z,37.38
2019-04-22T01:45:17.734Z,37.73
2019-04-22T01:47:49.125Z,38.00
2019-04-22T01:50:19.977Z,38.36
2019-04-22T01:52:57.101Z,38.68
2019-04-22T01:55:27.382Z,38.87
2019-04-22T01:57:50.053Z,39.06
2019-04-22T02:00:11.335Z,39.30
2019-04-22T02:02:49.276Z,39.25
2019-04-22T02:07:49.249Z,40.16
2019-04-22T02:10:29.811Z,40.33
2019-04-22T02:12:53.216Z,41.55
2019-04-22T02:15:27.569Z,41.94
2019-04-22T02:17:58.052Z,41.66
2019-04-22T02:20:28.176Z,41.62
2019-04-22T02:23:47.095Z,43.09
2019-04-22T02:26:07.631Z,40.93
2019-04-22T02:51:16.889Z,40.24
2019-04-22T02:54:15.275Z,40.29
2019-04-22T03:01:25.008Z,40.46
2019-04-22T03:04:06.929Z,40.90
2019-04-22T03:06:24.079Z,40.58
2019-04-22T03:09:03.428Z,42.65
2019-04-22T03:11:22.461Z,42.16
2019-04-22T03:16:29.701Z,43.94
2019-04-22T03:21:18.472Z,44.10
2019-04-22T03:37:03.831Z,51.01
2019-04-22T03:39:20.045Z,50.20
2019-04-22T03:41:57.269Z,50.48
2019-04-22T03:44:19.013Z,50.54
2019-04-22T03:46:36.828Z,50.54
2019-04-22T03:49:28.333Z,51.96
2019-04-22T03:51:46.527Z,51.89
2019-04-22T03:54:25.768Z,49.88
2019-04-22T03:57:10.480Z,51.08
2019-04-22T03:59:22.502Z,51.92
2019-04-22T04:06:39.950Z,55.21
2019-04-22T04:09:14.218Z,53.71
2019-04-22T04:11:57.147Z,53.94
2019-04-22T04:14:10.025Z,54.22
2019-04-22T04:16:44.927Z,55.12
2019-04-22T04:24:24.042Z,55.50
2019-04-22T04:29:36.162Z,54.84
2019-04-22T04:31:43.282Z,56.67
2019-04-22T04:34:15.112Z,55.12
2019-04-22T04:36:41.751Z,57.32
2019-04-22T04:39:05.641Z,57.34
2019-04-22T04:44:34.285Z,57.57
2019-04-22T04:47:05.986Z,58.50
2019-04-22T04:49:19.137Z,56.75
2019-04-22T04:51:53.638Z,57.60
2019-04-22T04:54:28.798Z,56.54
2019-04-22T04:56:44.497Z,59.09
2019-04-22T04:59:28.109Z,57.56
2019-04-22T05:01:45.043Z,57.87
2019-04-22T05:06:51.876Z,57.32
2019-04-22T05:11:58.310Z,56.70
2019-04-22T05:16:52.206Z,57.33
2019-04-22T05:21:40.699Z,58.62
2019-04-22T05:24:19.860Z,58.86
2019-04-22T05:26:44.813Z,59.02
2019-04-22T05:29:11.144Z,57.84
2019-04-22T05:31:46.994Z,58.83
2019-04-22T05:34:08.539Z,58.86
2019-04-22T05:36:40.328Z,57.81
2019-04-22T05:39:11.179Z,59.03
2019-04-22T05:41:44.564Z,57.72
2019-04-22T05:44:09.744Z,56.45
2019-04-22T05:46:46.398Z,57.58
2019-04-22T05:49:25.767Z,57.11
2019-04-22T05:51:42.221Z,58.15
2019-04-22T05:54:14.693Z,57.70
2019-04-22T05:56:41.005Z,55.82
2019-04-22T05:59:19.017Z,55.11
2019-04-22T06:01:55.136Z,55.32
2019-04-22T06:04:14.788Z,56.54
2019-04-22T06:06:39.982Z,55.89
2019-04-22T06:09:14.689Z,55.93
2019-04-22T06:11:39.464Z,55.01
2019-04-22T06:14:15.356Z,54.59
2019-04-22T06:16:51.486Z,54.53
2019-04-22T06:19:21.604Z,54.12
2019-04-22T06:21:49.099Z,53.96
2019-04-22T06:24:26.078Z,53.41
2019-04-22T06:27:01.614Z,52.66
2019-04-22T06:29:19.406Z,51.71
2019-04-22T06:32:13.266Z,50.92
2019-04-22T06:37:05.400Z,49.03
2019-04-22T06:39:28.151Z,47.65
2019-04-22T06:41:56.195Z,47.33
2019-04-22T06:49:31.846Z,45.76
2019-04-22T06:52:04.424Z,42.12
2019-04-22T06:54:28.255Z,39.28
2019-04-22T06:56:54.676Z,36.56
2019-04-22T06:59:25.123Z,35.06
2019-04-22T07:04:30.338Z,33.37
2019-04-22T07:07:12.333Z,32.84
2019-04-22T07:12:04.737Z,32.03
2019-04-22T07:14:35.277Z,31.27
2019-04-22T07:17:01.920Z,30.31
2019-04-22T07:19:41.032Z,28.94
2019-04-22T07:22:11.309Z,30.27
2019-04-22T07:27:10.255Z,28.36
2019-04-22T07:29:39.155Z,28.47
2019-04-22T07:32:06.844Z,27.20
2019-04-22T07:34:40.259Z,26.63
2019-04-22T07:37:23.077Z,27.15
2019-04-22T07:39:39.319Z,27.28
2019-04-22T07:42:16.771Z,25.46
2019-04-22T07:44:38.541Z,27.01
2019-04-22T07:47:13.631Z,26.48
2019-04-22T07:52:09.820Z,25.16
2019-04-22T07:54:42.824Z,25.25
2019-04-22T07:57:15.346Z,24.54
2019-04-22T07:59:40.396Z,25.37
2019-04-22T08:02:10.284Z,25.65
2019-04-22T08:07:17.731Z,25.05
2019-04-22T08:09:47.798Z,24.90
2019-04-22T08:12:02.950Z,23.68
2019-04-22T08:14:40.681Z,23.98
2019-04-22T08:19:45.607Z,24.75
2019-04-22T08:22:07.214Z,24.54
2019-04-22T08:24:47.174Z,25.20
2019-04-22T08:27:11.515Z,23.82
2019-04-22T08:29:53.536Z,23.39
2019-04-22T08:32:15.568Z,22.67
2019-04-22T08:34:42.728Z,22.39
2019-04-22T08:37:41.877Z,22.98
2019-04-22T08:40:01.597Z,23.33
2019-04-22T08:42:23.459Z,22.29
2019-04-22T08:45:04.822Z,22.46
2019-04-22T08:47:21.459Z,21.98
2019-04-22T08:49:50.272Z,20.99
2019-04-22T08:52:16.291Z,21.43
2019-04-22T08:54:44.248Z,21.27
2019-04-22T08:57:18.226Z,20.50
2019-04-22T08:59:49.628Z,21.00
2019-04-22T09:02:20.233Z,20.02
2019-04-22T09:04:50.239Z,20.19
2019-04-22T09:07:31.545Z,21.19
2019-04-22T09:10:03.622Z,20.03
2019-04-22T09:12:23.981Z,20.86
2019-04-22T09:14:47.555Z,19.76
2019-04-22T09:17:20.122Z,19.16
2019-04-22T09:19:48.094Z,18.85
2019-04-22T09:22:16.944Z,19.16
2019-04-22T09:25:03.906Z,19.43
2019-04-22T09:27:26.523Z,18.57
2019-04-22T09:29:56.408Z,20.38
2019-04-22T09:32:38.547Z,20.00
2019-04-22T09:34:51.730Z,20.72
2019-04-22T09:37:31.906Z,18.67
2019-04-22T09:40:03.269Z,19.33
2019-04-22T09:42:24.674Z,19.15
2019-04-22T09:45:05.738Z,18.94
2019-04-22T09:47:26.324Z,19.24
2019-04-22T09:49:56.702Z,19.20
2019-04-22T09:52:26.295Z,18.02
2019-04-22T09:54:59.655Z,18.51
2019-04-22T09:59:59.456Z,19.56
2019-04-22T10:02:35.599Z,19.01
2019-04-22T10:04:57.244Z,19.30
2019-04-22T10:07:25.713Z,18.34
2019-04-22T10:10:04.702Z,19.27
2019-04-22T10:15:00.283Z,19.15
2019-04-22T10:17:32.272Z,18.05
2019-04-22T10:20:00.609Z,18.47
2019-04-22T10:25:06.288Z,18.26
2019-04-22T10:27:32.717Z,19.17
2019-04-22T10:30:04.315Z,19.18
2019-04-22T10:32:38.150Z,20.35
2019-04-22T10:34:58.857Z,18.68
2019-04-22T10:37:23.876Z,19.37
2019-04-22T10:39:56.522Z,18.19
2019-04-22T10:42:23.022Z,18.55
2019-04-22T10:44:53.765Z,20.08
2019-04-22T10:47:22.390Z,18.92
2019-04-22T10:49:52.282Z,18.96
2019-04-22T10:52:21.624Z,19.35
2019-04-22T10:54:51.536Z,19.52
2019-04-22T10:57:20.208Z,19.97
2019-04-22T10:59:48.661Z,20.09
2019-04-22T11:02:17.410Z,20.51
2019-04-22T11:04:46.096Z,21.01
2019-04-22T11:07:15.414Z,20.12
2019-04-22T11:09:52.085Z,20.08
2019-04-22T11:12:20.461Z,20.70
2019-04-22T11:14:45.538Z,21.59
2019-04-22T11:17:15.513Z,21.11
2019-04-22T11:19:45.725Z,20.87
2019-04-22T11:22:20.894Z,20.31
2019-04-22T11:24:44.624Z,20.37
2019-04-22T11:27:14.737Z,19.88
2019-04-22T11:29:43.684Z,19.56
2019-04-22T11:32:12.915Z,19.12
2019-04-22T11:34:42.877Z,18.68
2019-04-22T11:37:12.303Z,18.87
2019-04-22T11:39:40.836Z,18.54
2019-04-22T11:42:09.997Z,18.69
2019-04-22T11:44:39.210Z,19.29
2019-04-22T11:47:07.699Z,18.81
2019-04-22T11:49:37.694Z,19.66
2019-04-22T11:52:08.437Z,18.98
2019-04-22T11:54:36.979Z,19.31
2019-04-22T11:57:05.649Z,19.36
2019-04-22T11:59:36.327Z,20.06
2019-04-22T12:02:08.815Z,19.41
2019-04-22T12:04:38.061Z,19.18
2019-04-22T12:07:06.938Z,18.67
2019-04-22T12:09:35.620Z,19.51
2019-04-22T12:12:05.721Z,18.79
2019-04-22T12:14:34.135Z,19.45
2019-04-22T12:17:03.570Z,19.47
2019-04-22T12:19:33.454Z,19.41
2019-04-22T12:22:02.912Z,19.63
2019-04-22T12:24:32.041Z,20.51
2019-04-22T12:27:02.290Z,18.86
2019-04-22T12:29:31.090Z,18.68
2019-04-22T12:31:59.834Z,17.41
2019-04-22T12:34:29.274Z,18.28
2019-04-22T12:36:58.514Z,17.45
2019-04-22T12:39:27.500Z,17.11
2019-04-22T12:42:02.660Z,17.72
2019-04-22T12:44:32.761Z,17.26
2019-04-22T12:47:02.638Z,16.36
2019-04-22T12:49:32.212Z,16.30
2019-04-22T12:52:03.078Z,16.82
2019-04-22T12:54:32.952Z,18.33
2019-04-22T12:57:01.811Z,15.95
2019-04-22T12:59:30.200Z,16.15
2019-04-22T13:01:58.958Z,16.43
2019-04-22T13:04:30.175Z,17.07
2019-04-22T13:07:00.176Z,16.88
2019-04-22T13:09:29.847Z,17.35
2019-04-22T13:11:59.238Z,16.61
2019-04-22T13:14:28.960Z,15.66
2019-04-22T13:16:57.789Z,15.85
2019-04-22T13:19:28.248Z,15.92
2019-04-22T13:21:56.728Z,15.66
2019-04-22T13:24:25.966Z,15.51
2019-04-22T13:26:58.999Z,15.22
2019-04-22T13:29:27.942Z,15.89
2019-04-22T13:31:56.593Z,16.38
2019-04-22T13:34:32.912Z,15.85
2019-04-22T13:37:01.256Z,16.34
2019-04-22T13:39:31.178Z,16.79
2019-04-22T13:42:03.923Z,17.00
2019-04-22T13:44:31.442Z,16.08
2019-04-22T13:47:14.774Z,17.32
2019-04-22T13:50:11.739Z,16.98
2019-04-22T13:52:40.918Z,17.17
2019-04-22T13:54:53.196Z,16.68
2019-04-22T13:57:22.921Z,16.62
2019-04-22T13:59:40.123Z,16.35
2019-04-22T14:02:06.419Z,15.73
2019-04-22T14:04:36.830Z,15.49
2019-04-22T14:07:07.026Z,15.67
2019-04-22T14:09:36.064Z,15.15
2019-04-22T14:12:08.186Z,15.82
2019-04-22T14:14:39.211Z,14.91
2019-04-22T14:17:07.227Z,15.34
2019-04-22T14:19:36.291Z,16.27
2019-04-22T14:22:04.803Z,15.77
2019-04-22T14:24:34.322Z,15.55
2019-04-22T14:27:17.481Z,17.23
2019-04-22T14:29:33.541Z,16.28
2019-04-22T14:32:09.258Z,16.25
2019-04-22T14:34:32.391Z,16.56
2019-04-22T14:37:03.583Z,16.90
2019-04-22T14:39:31.968Z,17.24
2019-04-22T14:44:12.634Z,16.45
2019-04-22T14:45:20.234Z,17.02
2019-04-22T14:47:25.978Z,17.40
2019-04-22T14:49:54.250Z,16.59
2019-04-22T14:52:23.063Z,16.70
2019-04-22T14:54:45.851Z,17.50
2019-04-22T14:57:03.335Z,17.39
2019-04-22T14:59:32.563Z,18.06
2019-04-22T15:02:01.568Z,18.79
2019-04-22T15:04:31.057Z,17.67
2019-04-22T15:07:01.166Z,16.66
2019-04-22T15:09:30.066Z,17.38
2019-04-22T15:12:13.429Z,17.35
2019-04-22T15:14:29.920Z,16.80
2019-04-22T15:17:02.882Z,16.68
2019-04-22T15:19:38.397Z,16.83
2019-04-22T15:22:08.348Z,16.36
2019-04-22T15:24:38.664Z,17.21
2019-04-22T15:27:08.649Z,18.24
2019-04-22T15:29:38.982Z,17.80
2019-04-22T15:32:07.693Z,19.05
2019-04-22T15:34:36.647Z,17.93
2019-04-22T15:37:06.546Z,17.89
2019-04-22T15:39:36.340Z,17.89
2019-04-22T15:42:12.414Z,17.51
2019-04-22T15:44:35.815Z,16.44
2019-04-22T15:47:04.996Z,17.20
2019-04-22T15:49:34.074Z,18.12
2019-04-22T15:52:04.352Z,17.73
2019-04-22T15:54:33.873Z,17.75
2019-04-22T15:57:02.667Z,18.17
2019-04-22T15:59:49.433Z,18.04
2019-04-22T16:02:06.046Z,18.08
2019-04-22T16:04:34.794Z,18.18
2019-04-22T16:07:05.147Z,18.26
2019-04-22T16:09:36.596Z,18.18
2019-04-22T16:12:18.596Z,17.24
2019-04-22T16:14:41.887Z,17.12
2019-04-22T16:17:06.374Z,18.02
2019-04-22T16:19:35.184Z,17.41
2019-04-22T16:22:09.533Z,18.98
2019-04-22T16:24:36.283Z,18.40
2019-04-22T16:27:06.644Z,18.11
2019-04-22T16:29:35.137Z,19.08
2019-04-22T16:32:05.349Z,18.77
2019-04-22T16:34:34.257Z,18.54
2019-04-22T16:37:02.924Z,18.91
2019-04-22T16:39:32.892Z,18.92
2019-04-22T16:42:02.625Z,18.31
2019-04-22T16:44:32.364Z,18.42
2019-04-22T16:47:01.591Z,19.43
2019-04-22T16:49:31.891Z,19.67
2019-04-22T16:52:03.718Z,19.74
2019-04-22T16:54:32.837Z,20.38
2019-04-22T16:57:01.885Z,19.92
2019-04-22T16:59:30.744Z,19.87
2019-04-22T17:02:16.915Z,19.83
2019-04-22T17:04:53.574Z,20.22
2019-04-22T17:07:22.405Z,20.55
2019-04-22T17:09:52.147Z,20.81
2019-04-22T17:12:21.731Z,19.97
2019-04-22T17:14:56.781Z,21.15
2019-04-22T17:17:22.388Z,20.96
2019-04-22T17:19:51.382Z,21.12
2019-04-22T17:22:21.624Z,20.97
2019-04-22T17:24:50.268Z,21.21
2019-04-22T17:27:20.112Z,21.05
2019-04-22T17:29:56.823Z,20.69
2019-04-22T17:32:27.344Z,21.00
2019-04-22T17:34:55.610Z,21.28
2019-04-22T17:37:28.100Z,21.81
2019-04-22T17:40:09.824Z,21.46
2019-04-22T17:42:46.433Z,22.81
2019-04-22T17:45:24.049Z,21.07
2019-04-22T17:48:09.708Z,21.53
2019-04-22T17:50:46.897Z,21.09
2019-04-22T17:53:14.061Z,21.53
2019-04-22T17:55:46.173Z,21.75
2019-04-22T17:58:15.970Z,21.56
2019-04-22T18:00:39.520Z,20.94
2019-04-22T18:03:03.264Z,20.91
2019-04-22T18:05:31.973Z,21.11
2019-04-22T18:08:15.206Z,21.70
2019-04-22T18:10:40.722Z,21.81
2019-04-22T18:13:23.799Z,22.00
2019-04-22T18:15:51.492Z,22.04
2019-04-22T18:18:20.963Z,22.21
2019-04-22T18:20:41.103Z,22.71
2019-04-22T18:23:06.699Z,22.18
2019-04-22T18:25:46.874Z,22.45
2019-04-22T18:28:25.639Z,22.85
2019-04-22T18:30:41.258Z,22.47
2019-04-22T18:33:19.382Z,22.91
2019-04-22T18:35:44.493Z,23.06
2019-04-22T18:38:28.190Z,22.88
2019-04-22T18:40:53.655Z,23.26
2019-04-22T18:43:22.183Z,23.62
2019-04-22T18:45:55.036Z,23.56
2019-04-22T18:48:15.300Z,23.54
2019-04-22T18:51:04.747Z,24.10
2019-04-22T18:53:40.328Z,24.02
2019-04-22T18:56:13.909Z,24.39
2019-04-22T18:58:35.348Z,24.43
2019-04-22T19:00:51.322Z,24.63
2019-04-22T19:03:26.300Z,24.66
2019-04-22T19:06:24.321Z,24.88
2019-04-22T19:08:43.056Z,24.85
2019-04-22T19:11:28.137Z,24.78
2019-04-22T19:16:32.068Z,24.60
2019-04-22T19:19:05.869Z,25.10
2019-04-22T19:21:16.089Z,24.85
2019-04-22T19:23:52.151Z,25.26
2019-04-22T19:26:32.487Z,24.78
2019-04-22T19:29:10.109Z,25.00
2019-04-22T19:31:24.691Z,24.81
2019-04-22T19:33:53.709Z,24.92
2019-04-22T19:36:22.731Z,24.93
2019-04-22T19:38:52.617Z,25.58
2019-04-22T19:41:29.172Z,25.51
2019-04-22T19:44:00.571Z,25.44
2019-04-22T19:46:22.335Z,25.39
2019-04-22T19:49:08.388Z,25.27
2019-04-22T19:51:38.432Z,25.72
2019-04-22T19:53:56.167Z,25.53
2019-04-22T19:56:22.746Z,26.05
2019-04-22T19:58:53.496Z,25.72
2019-04-22T20:01:43.629Z,25.87
2019-04-22T20:04:21.632Z,25.95
2019-04-22T20:06:47.817Z,25.31
2019-04-22T20:09:24.905Z,25.53
2019-04-22T20:11:53.009Z,26.17
2019-04-22T20:14:35.439Z,25.10
2019-04-22T20:16:45.790Z,25.11
2019-04-22T20:19:26.910Z,25.30
2019-04-22T20:21:51.791Z,25.98
2019-04-22T20:24:10.285Z,25.79
2019-04-22T20:26:56.483Z,26.30
2019-04-22T20:29:25.733Z,26.02
2019-04-22T20:31:54.464Z,26.72
2019-04-22T20:34:26.748Z,26.48
2019-04-22T20:39:33.519Z,26.34
2019-04-22T20:42:12.527Z,26.80
2019-04-22T20:44:33.501Z,26.58
2019-04-22T20:46:57.320Z,26.11
2019-04-22T20:49:30.901Z,26.40
2019-04-22T20:54:28.459Z,25.84
2019-04-22T20:56:56.349Z,26.00
2019-04-22T20:59:33.307Z,25.92
2019-04-22T21:02:01.895Z,26.27
2019-04-22T21:04:27.780Z,26.20
2019-04-22T21:07:02.149Z,25.98
2019-04-22T21:09:35.533Z,26.21
2019-04-22T21:11:56.631Z,26.46
2019-04-22T21:14:28.658Z,26.72
2019-04-22T21:17:06.924Z,26.35
2019-04-22T21:19:40.388Z,26.52
2019-04-22T21:22:10.605Z,26.85
2019-04-22T21:24:35.000Z,26.12
2019-04-22T21:27:16.574Z,26.13
2019-04-22T21:29:33.339Z,25.96
2019-04-22T21:32:10.803Z,26.59
2019-04-22T21:34:43.683Z,26.31
2019-04-22T21:37:14.150Z,26.83
2019-04-22T21:39:36.646Z,26.62
2019-04-22T21:42:04.779Z,27.10
2019-04-22T21:44:40.579Z,26.71
2019-04-22T21:47:14.702Z,27.77
2019-04-22T21:49:42.906Z,27.25
2019-04-22T21:52:13.819Z,27.22
2019-04-22T21:54:50.160Z,27.56
2019-04-22T21:57:27.807Z,27.55
2019-04-22T22:00:03.512Z,27.51
2019-04-22T22:02:31.434Z,28.02
2019-04-22T22:04:58.976Z,28.04
2019-04-22T22:07:14.357Z,28.12
2019-04-22T22:09:59.587Z,28.14
2019-04-22T22:12:34.988Z,28.02
2019-04-22T22:15:05.465Z,28.27
2019-04-22T22:17:30.710Z,28.27
2019-04-22T22:19:57.780Z,28.52
2019-04-22T22:25:04.292Z,28.56
2019-04-22T22:27:34.254Z,28.52
2019-04-22T22:30:25.308Z,28.22
2019-04-22T22:32:33.759Z,28.59
2019-04-22T22:35:10.012Z,28.41
2019-04-22T22:37:27.372Z,28.83
2019-04-22T22:39:55.440Z,28.45
2019-04-22T22:42:22.590Z,28.49
2019-04-22T22:44:54.331Z,28.26
2019-04-22T22:47:40.924Z,28.48
2019-04-22T22:50:12.189Z,28.70
2019-04-22T22:55:11.992Z,29.23
2019-04-22T22:57:44.311Z,28.83
2019-04-22T23:00:11.139Z,29.16
2019-04-22T23:02:47.145Z,28.64
2019-04-22T23:05:22.306Z,29.10
2019-04-22T23:07:50.571Z,29.12
2019-04-22T23:10:11.256Z,29.02
2019-04-22T23:12:51.513Z,29.11
2019-04-22T23:15:12.472Z,29.39
2019-04-22T23:17:27.785Z,29.37
2019-04-22T23:19:56.066Z,29.39
2019-04-22T23:22:31.262Z,29.94
2019-04-22T23:25:16.874Z,29.91
2019-04-22T23:27:44.457Z,30.07
2019-04-22T23:30:08.898Z,29.93
2019-04-22T23:32:42.686Z,30.07
2019-04-22T23:35:23.113Z,30.85
2019-04-22T23:37:50.994Z,29.83
2019-04-22T23:40:30.486Z,29.77
2019-04-22T23:43:00.053Z,29.89
2019-04-22T23:45:31.098Z,30.48
2019-04-22T23:47:49.928Z,30.49
2019-04-22T23:50:30.802Z,30.79
2019-04-22T23:53:02.484Z,30.94
2019-04-22T23:55:34.059Z,31.06
2019-04-22T23:58:02.610Z,31.47
